Time;durP1;ratioP1;P1;durP2;ratioP2;P2;SDS_P1;SDS_P2;PMS_P1;PMS_P2;Temp;Humidity;BMP_temperature;BMP_pressure;BME280_temperature;BME280_humidity;BME280_pressure;Samples;Min_cycle;Max_cycle;Signal;HPM_P1;HPM_P2
2021/08/23 00:01:37;;;;;;;9.15;6.13;;;17.80;91.90;;;;;;5091357;28;20368;-75
2021/08/23 00:04:03;;;;;;;9.93;6.65;;;17.80;92.00;;;;;;5091172;28;20020;-75
2021/08/23 00:06:28;;;;;;;14.88;11.38;;;17.80;92.20;;;;;;5091833;28;20031;-76
2021/08/23 00:08:54;;;;;;;11.23;9.88;;;17.80;92.30;;;;;;5092618;28;20024;-76
2021/08/23 00:11:20;;;;;;;20.88;15.07;;;17.80;92.60;;;;;;5091304;28;20028;-76
2021/08/23 00:13:45;;;;;;;21.08;14.80;;;17.80;92.80;;;;;;5091398;28;20103;-76
2021/08/23 00:16:11;;;;;;;7.03;4.50;;;17.80;92.90;;;;;;5091169;28;20027;-76
2021/08/23 00:18:36;;;;;;;19.08;15.30;;;17.80;92.20;;;;;;5091170;28;20035;-76
2021/08/23 00:21:02;;;;;;;15.43;12.63;;;17.80;92.50;;;;;;5090960;28;20047;-76
2021/08/23 00:23:35;;;;;;;10.35;8.75;;;17.80;92.40;;;;;;5092522;28;20491;-76
2021/08/23 00:26:01;;;;;;;17.08;14.98;;;17.80;92.40;;;;;;5091070;28;20073;-76
2021/08/23 00:28:26;;;;;;;9.52;7.55;;;17.80;92.30;;;;;;5092699;28;20028;-76
2021/08/23 00:30:52;;;;;;;16.27;13.23;;;17.70;91.80;;;;;;5091185;28;20030;-76
2021/08/23 00:33:18;;;;;;;21.33;16.05;;;17.70;92.40;;;;;;5092346;28;20032;-76
2021/08/23 00:35:44;;;;;;;16.40;14.00;;;17.70;92.50;;;;;;5091159;28;20657;-76
2021/08/23 00:38:10;;;;;;;19.08;14.35;;;17.70;92.20;;;;;;5090961;28;20032;-76
2021/08/23 00:40:36;;;;;;;16.52;12.88;;;17.70;92.70;;;;;;5090964;28;20058;-77
2021/08/23 00:43:03;;;;;;;20.90;18.58;;;17.70;92.70;;;;;;5092912;28;20066;-75
2021/08/23 00:45:29;;;;;;;20.15;15.90;;;17.60;93.10;;;;;;5095172;28;20024;-75
2021/08/23 00:47:55;;;;;;;25.85;18.98;;;17.70;93.20;;;;;;5095191;28;20506;-75
2021/08/23 00:50:21;;;;;;;19.67;16.48;;;17.70;93.30;;;;;;5095049;28;20031;-75
2021/08/23 00:52:47;;;;;;;19.95;14.85;;;17.70;93.40;;;;;;5095289;28;20486;-75
2021/08/23 00:55:13;;;;;;;19.80;16.50;;;17.60;93.20;;;;;;5105717;28;20008;-74
2021/08/23 00:57:42;;;;;;;22.45;14.98;;;17.70;93.30;;;;;;5105952;28;20016;-74
2021/08/23 01:00:09;;;;;;;24.77;19.83;;;17.70;93.00;;;;;;5097723;28;20516;-75
2021/08/23 01:02:43;;;;;;;22.55;19.35;;;17.70;93.20;;;;;;5095785;28;20032;-76
2021/08/23 01:05:35;;;;;;;12.57;9.90;;;17.70;93.10;;;;;;5095582;28;20357;-75
2021/08/23 01:08:30;;;;;;;6.10;3.85;;;17.60;93.00;;;;;;5093401;28;20039;-75
2021/08/23 01:11:00;;;;;;;17.50;14.85;;;17.60;91.50;;;;;;5094759;28;20059;-75
2021/08/23 01:13:27;;;;;;;24.00;18.95;;;17.70;92.10;;;;;;5094935;28;20022;-76
2021/08/23 01:15:53;;;;;;;18.33;15.48;;;17.70;92.60;;;;;;5095157;28;20016;-75
2021/08/23 01:18:19;;;;;;;31.55;26.77;;;17.70;92.90;;;;;;5097809;28;20055;-76
2021/08/23 01:20:46;;;;;;;27.48;21.55;;;17.70;93.10;;;;;;5102705;28;20469;-76
2021/08/23 01:23:13;;;;;;;25.58;21.98;;;17.70;93.30;;;;;;5103148;28;20027;-76
2021/08/23 01:25:41;;;;;;;17.98;16.00;;;17.70;93.30;;;;;;5102242;28;20088;-75
2021/08/23 01:28:17;;;;;;;16.52;14.30;;;17.70;93.40;;;;;;5095172;28;20045;-76
2021/08/23 01:31:20;;;;;;;23.23;19.02;;;17.70;93.00;;;;;;5095988;28;20027;-74
2021/08/23 01:33:46;;;;;;;34.13;27.55;;;17.70;93.30;;;;;;5094887;28;20036;-75
2021/08/23 01:36:13;;;;;;;14.95;12.40;;;17.70;93.70;;;;;;5094276;28;20020;-75
2021/08/23 01:38:39;;;;;;;15.10;12.52;;;17.70;93.50;;;;;;5095626;28;20031;-75
2021/08/23 01:41:07;;;;;;;16.73;13.75;;;17.70;93.00;;;;;;5095064;28;20028;-75
2021/08/23 01:43:34;;;;;;;31.05;22.80;;;17.70;93.20;;;;;;5095623;28;20032;-75
2021/08/23 01:45:59;;;;;;;13.77;10.77;;;17.70;93.10;;;;;;5096039;28;20548;-76
2021/08/23 01:48:25;;;;;;;23.02;18.58;;;17.70;92.30;;;;;;5105174;28;20075;-76
2021/08/23 01:50:51;;;;;;;32.42;21.85;;;17.70;92.60;;;;;;5105188;28;20434;-76
2021/08/23 01:53:18;;;;;;;21.15;16.50;;;17.70;93.00;;;;;;5095055;28;20456;-75
2021/08/23 01:55:44;;;;;;;24.20;18.00;;;17.70;92.80;;;;;;5095211;28;20024;-76
2021/08/23 01:58:10;;;;;;;28.10;19.33;;;17.60;92.60;;;;;;5104084;28;20036;-77
2021/08/23 02:00:35;;;;;;;24.42;18.15;;;17.60;92.90;;;;;;5105448;28;20028;-76
2021/08/23 02:03:01;;;;;;;20.65;16.77;;;17.70;93.00;;;;;;5094557;28;20040;-77
2021/08/23 02:05:28;;;;;;;15.43;8.95;;;17.60;92.80;;;;;;5093217;28;20031;-76
2021/08/23 02:07:54;;;;;;;29.88;21.08;;;17.70;92.20;;;;;;5093438;28;20025;-75
2021/08/23 02:10:20;;;;;;;34.42;25.45;;;17.60;92.50;;;;;;5094131;28;20028;-77
2021/08/23 02:12:46;;;;;;;24.23;18.55;;;17.70;92.50;;;;;;5094859;28;20024;-76
2021/08/23 02:15:12;;;;;;;49.00;34.40;;;17.70;92.90;;;;;;5092911;28;20024;-76
2021/08/23 02:17:38;;;;;;;24.73;19.85;;;17.60;93.60;;;;;;5094660;28;20464;-76
2021/08/23 02:20:11;;;;;;;45.25;33.15;;;17.70;92.90;;;;;;5094041;28;20160;-76
2021/08/23 02:22:37;;;;;;;23.77;18.42;;;17.70;93.50;;;;;;5092965;28;20594;-76
2021/08/23 02:25:06;;;;;;;19.95;14.10;;;17.70;93.60;;;;;;5093080;28;20377;-76
2021/08/23 02:27:32;;;;;;;30.23;24.33;;;17.70;93.20;;;;;;5093985;28;20028;-76
2021/08/23 02:29:58;;;;;;;28.40;21.92;;;17.70;93.50;;;;;;5094291;28;20027;-76
2021/08/23 02:32:24;;;;;;;25.08;18.77;;;17.80;93.80;;;;;;5092610;28;20024;-76
2021/08/23 02:34:49;;;;;;;11.63;8.15;;;17.80;93.60;;;;;;5092977;28;20031;-76
2021/08/23 02:37:15;;;;;;;23.65;18.20;;;17.70;92.80;;;;;;5093987;28;20419;-76
2021/08/23 02:39:40;;;;;;;25.27;19.48;;;17.80;92.90;;;;;;5094331;28;20107;-75
2021/08/23 02:42:06;;;;;;;34.15;25.58;;;17.80;93.10;;;;;;5093436;28;20107;-75
2021/08/23 02:44:32;;;;;;;24.60;19.48;;;17.80;93.40;;;;;;5092654;28;20115;-75
2021/08/23 02:46:58;;;;;;;25.02;20.15;;;17.70;93.40;;;;;;5092646;28;20063;-74
2021/08/23 02:49:24;;;;;;;32.38;24.27;;;17.80;93.10;;;;;;5093574;28;20048;-74
2021/08/23 02:51:50;;;;;;;10.57;8.52;;;17.80;92.90;;;;;;5092518;28;20039;-75
2021/08/23 02:54:15;;;;;;;15.05;11.98;;;17.80;92.40;;;;;;5093358;28;20024;-75
2021/08/23 02:56:41;;;;;;;16.60;12.65;;;17.80;91.70;;;;;;5093819;28;20024;-76
2021/08/23 02:59:07;;;;;;;17.80;13.57;;;17.80;92.40;;;;;;5093577;28;20112;-75
2021/08/23 03:01:32;;;;;;;18.00;14.48;;;17.70;92.10;;;;;;5091915;28;20383;-76
2021/08/23 03:03:58;;;;;;;15.52;12.30;;;17.70;92.40;;;;;;5093495;28;20081;-75
2021/08/23 03:06:23;;;;;;;11.00;8.23;;;17.70;92.40;;;;;;5093064;28;20503;-75
2021/08/23 03:08:49;;;;;;;24.95;18.65;;;17.70;92.10;;;;;;5093450;28;20038;-76
2021/08/23 03:11:15;;;;;;;23.80;17.10;;;17.70;92.80;;;;;;5091702;28;20070;-75
2021/08/23 03:13:42;;;;;;;20.80;14.23;;;17.60;92.90;;;;;;5093212;28;20024;-76
2021/08/23 03:16:09;;;;;;;22.90;16.92;;;17.60;93.30;;;;;;5093342;28;20020;-75
2021/08/23 03:18:34;;;;;;;21.25;15.13;;;17.60;93.00;;;;;;5091974;28;20036;-74
2021/08/23 03:21:00;;;;;;;27.38;20.23;;;17.60;92.30;;;;;;5092279;28;20020;-74
2021/08/23 03:23:27;;;;;;;27.48;20.30;;;17.60;92.40;;;;;;5092257;28;20473;-75
2021/08/23 03:25:53;;;;;;;25.83;19.05;;;17.60;92.50;;;;;;5093642;28;20059;-76
2021/08/23 03:28:19;;;;;;;32.50;22.92;;;17.60;92.90;;;;;;5093961;28;20108;-76
2021/08/23 03:30:44;;;;;;;30.30;22.00;;;17.50;93.30;;;;;;5092353;28;20482;-76
2021/08/23 03:33:11;;;;;;;36.35;24.15;;;17.60;92.90;;;;;;5093224;28;20023;-75
2021/08/23 03:35:36;;;;;;;40.95;27.42;;;17.50;93.40;;;;;;5093951;28;20420;-75
2021/08/23 03:38:02;;;;;;;24.80;18.88;;;17.50;93.40;;;;;;5101054;28;20448;-74
2021/08/23 03:40:28;;;;;;;47.08;33.65;;;17.50;93.00;;;;;;5100014;28;20016;-75
2021/08/23 03:42:55;;;;;;;55.88;37.85;;;17.50;93.60;;;;;;5094560;28;20115;-75
2021/08/23 03:45:20;;;;;;;55.38;37.22;;;17.50;93.60;;;;;;5091204;28;20028;-75
2021/08/23 03:47:46;;;;;;;37.45;28.00;;;17.50;93.80;;;;;;5093291;28;20028;-75
2021/08/23 03:50:11;;;;;;;32.70;22.45;;;17.50;93.80;;;;;;5091189;28;20024;-74
2021/08/23 03:52:37;;;;;;;40.70;29.45;;;17.40;93.80;;;;;;5093160;28;20024;-75
2021/08/23 03:55:06;;;;;;;42.75;28.55;;;17.40;93.10;;;;;;5093583;28;20071;-76
2021/08/23 03:57:33;;;;;;;36.63;25.58;;;17.40;93.10;;;;;;5092276;28;20051;-76
2021/08/23 03:59:59;;;;;;;12.73;8.35;;;17.40;93.20;;;;;;5092840;28;20110;-76
2021/08/23 04:02:25;;;;;;;38.85;26.98;;;17.40;92.10;;;;;;5102053;28;20028;-76
2021/08/23 04:04:50;;;;;;;37.90;27.83;;;17.40;93.00;;;;;;5097463;28;20476;-76
2021/08/23 04:07:16;;;;;;;11.75;7.25;;;17.40;92.90;;;;;;5100716;28;20111;-76
2021/08/23 04:09:41;;;;;;;25.58;18.30;;;17.30;92.20;;;;;;5097329;28;20464;-77
2021/08/23 04:12:07;;;;;;;28.25;20.33;;;17.40;92.70;;;;;;5093516;28;20433;-76
2021/08/23 04:14:32;;;;;;;31.42;22.15;;;17.30;92.80;;;;;;5091285;28;20024;-76
2021/08/23 04:16:58;;;;;;;17.73;13.30;;;17.30;92.20;;;;;;5091704;28;20020;-76
2021/08/23 04:19:24;;;;;;;24.35;16.98;;;17.30;92.60;;;;;;5095031;28;20035;-76
2021/08/23 04:21:49;;;;;;;51.75;34.10;;;17.30;92.90;;;;;;5096304;28;20028;-76
2021/08/23 04:24:15;;;;;;;13.00;9.10;;;17.40;93.10;;;;;;5096252;28;20032;-76
2021/08/23 04:26:40;;;;;;;11.10;7.72;;;17.40;92.30;;;;;;5095329;28;20240;-75
2021/08/23 04:29:06;;;;;;;33.17;23.08;;;17.40;92.00;;;;;;5095282;28;20020;-77
2021/08/23 04:31:32;;;;;;;45.90;31.23;;;17.30;92.60;;;;;;5096153;28;20773;-76
2021/08/23 04:33:58;;;;;;;46.05;31.13;;;17.30;92.90;;;;;;5096460;28;20024;-75
2021/08/23 04:36:24;;;;;;;18.58;12.05;;;17.30;92.90;;;;;;5095008;28;20016;-76
2021/08/23 04:38:49;;;;;;;35.95;23.60;;;17.20;92.70;;;;;;5095171;28;20085;-77
2021/08/23 04:41:15;;;;;;;24.25;17.02;;;17.20;92.90;;;;;;5096084;28;20472;-76
2021/08/23 04:43:40;;;;;;;38.88;23.55;;;17.20;93.00;;;;;;5095076;28;20038;-76
2021/08/23 04:46:06;;;;;;;46.92;30.67;;;17.20;93.30;;;;;;5094968;28;20024;-76
2021/08/23 04:48:32;;;;;;;32.30;22.00;;;17.10;93.50;;;;;;5094822;28;20464;-76
2021/08/23 04:50:57;;;;;;;37.13;23.00;;;17.10;93.50;;;;;;5094852;28;20115;-75
2021/08/23 04:53:23;;;;;;;27.83;19.02;;;17.10;93.30;;;;;;5095843;28;20078;-75
2021/08/23 04:55:49;;;;;;;40.25;26.05;;;17.10;93.40;;;;;;5096242;28;20024;-76
2021/08/23 04:58:14;;;;;;;25.55;17.65;;;17.10;93.40;;;;;;5094726;28;20474;-77
2021/08/23 05:00:40;;;;;;;23.50;17.83;;;17.20;93.20;;;;;;5094754;28;20349;-76
2021/08/23 05:03:08;;;;;;;28.17;18.38;;;17.20;92.50;;;;;;5094737;28;20515;-76
2021/08/23 05:05:33;;;;;;;18.67;11.70;;;17.10;92.80;;;;;;5094403;28;20042;-76
2021/08/23 05:07:59;;;;;;;17.85;11.05;;;17.10;92.30;;;;;;5095612;28;20099;-76
2021/08/23 05:10:24;;;;;;;20.10;14.00;;;17.10;92.60;;;;;;5094927;28;20030;-77
2021/08/23 05:12:55;;;;;;;36.08;23.38;;;17.00;92.70;;;;;;5094591;28;20119;-76
2021/08/23 05:15:21;;;;;;;24.63;14.85;;;17.00;92.80;;;;;;5095635;28;20469;-76
2021/08/23 05:17:46;;;;;;;40.92;24.95;;;17.00;92.80;;;;;;5095485;28;20418;-76
2021/08/23 05:20:12;;;;;;;22.08;14.65;;;17.00;93.20;;;;;;5094620;28;20028;-76
2021/08/23 05:22:38;;;;;;;21.35;12.93;;;17.00;93.00;;;;;;5096203;28;20479;-76
2021/08/23 05:25:05;;;;;;;30.98;18.95;;;17.00;92.80;;;;;;5099408;28;20024;-75
2021/08/23 05:27:31;;;;;;;12.48;8.02;;;17.00;92.90;;;;;;5103305;28;20024;-74
2021/08/23 05:30:05;;;;;;;35.58;24.55;;;17.00;92.80;;;;;;5104034;28;20083;-77
2021/08/23 05:32:30;;;;;;;28.55;18.00;;;17.00;92.80;;;;;;5100928;28;20070;-77
2021/08/23 05:34:56;;;;;;;24.95;17.50;;;17.00;93.30;;;;;;5094786;28;20024;-75
2021/08/23 05:37:22;;;;;;;29.20;20.73;;;17.00;93.10;;;;;;5093971;28;20080;-75
2021/08/23 05:39:48;;;;;;;26.40;19.10;;;16.90;92.70;;;;;;5094238;28;20016;-75
2021/08/23 05:42:14;;;;;;;29.77;19.55;;;17.00;93.00;;;;;;5094190;28;20034;-75
2021/08/23 05:44:40;;;;;;;16.13;11.02;;;17.00;93.30;;;;;;5093876;28;20455;-77
2021/08/23 05:47:06;;;;;;;31.42;22.30;;;17.00;93.10;;;;;;5095161;28;20103;-76
2021/08/23 05:49:32;;;;;;;17.35;13.07;;;17.00;93.10;;;;;;5093844;28;20495;-76
2021/08/23 05:51:59;;;;;;;24.83;19.38;;;17.00;93.20;;;;;;5095376;28;20059;-76
2021/08/23 05:54:25;;;;;;;25.63;17.30;;;17.00;92.80;;;;;;5094731;28;20024;-76
2021/08/23 05:56:52;;;;;;;23.70;15.68;;;17.00;92.70;;;;;;5093973;28;20051;-76
2021/08/23 05:59:18;;;;;;;24.88;18.88;;;17.00;92.70;;;;;;5095206;28;20024;-76
2021/08/23 06:01:44;;;;;;;21.50;16.40;;;17.00;92.60;;;;;;5094988;28;20058;-76
2021/08/23 06:04:09;;;;;;;28.33;20.05;;;17.00;92.80;;;;;;5095266;28;20454;-75
2021/08/23 06:06:37;;;;;;;21.90;17.10;;;17.00;93.10;;;;;;5106125;28;20015;-77
2021/08/23 06:09:03;;;;;;;19.77;16.30;;;17.00;92.90;;;;;;5110324;28;20020;-77
2021/08/23 06:11:29;;;;;;;23.25;17.85;;;17.00;93.00;;;;;;5093379;28;20035;-77
2021/08/23 06:13:55;;;;;;;18.50;14.48;;;17.10;93.00;;;;;;5083794;28;20017;-76
2021/08/23 06:16:20;;;;;;;30.27;19.92;;;17.10;92.90;;;;;;5081211;28;20019;-75
2021/08/23 06:18:46;;;;;;;15.02;12.40;;;17.10;92.80;;;;;;5081489;28;20020;-75
2021/08/23 06:21:11;;;;;;;28.48;20.85;;;17.10;92.80;;;;;;5083560;28;20068;-76
2021/08/23 06:23:49;;;;;;;15.60;11.43;;;17.20;92.70;;;;;;5083216;28;20466;-77
2021/08/23 06:26:15;;;;;;;22.60;17.00;;;17.20;92.40;;;;;;5079500;28;20400;-77
2021/08/23 06:28:41;;;;;;;21.15;15.05;;;17.20;92.60;;;;;;5073620;28;20457;-76
2021/08/23 06:31:06;;;;;;;32.88;24.08;;;17.20;92.60;;;;;;5072522;28;20021;-76
2021/08/23 06:33:32;;;;;;;33.28;21.15;;;17.20;93.00;;;;;;5072251;28;20029;-77
2021/08/23 06:35:57;;;;;;;30.35;22.23;;;17.30;92.90;;;;;;5072632;28;20109;-75
2021/08/23 06:38:23;;;;;;;31.38;21.60;;;17.30;93.10;;;;;;5072551;28;20112;-79
2021/08/23 06:40:48;;;;;;;20.20;13.65;;;17.40;93.20;;;;;;5072098;28;20016;-79
2021/08/23 06:43:14;;;;;;;28.60;20.73;;;17.50;92.90;;;;;;5072399;28;20481;-78
2021/08/23 06:45:40;;;;;;;24.55;16.90;;;17.50;92.90;;;;;;5072701;28;20012;-75
2021/08/23 06:48:05;;;;;;;16.13;11.23;;;17.60;92.70;;;;;;5076221;28;20021;-76
2021/08/23 06:50:31;;;;;;;16.27;9.90;;;17.60;92.20;;;;;;5080875;28;20056;-76
2021/08/23 06:52:57;;;;;;;28.85;19.92;;;17.60;92.10;;;;;;5077065;28;20053;-77
2021/08/23 06:55:23;;;;;;;25.98;16.17;;;17.70;92.50;;;;;;5073872;28;20029;-77
2021/08/23 06:57:48;;;;;;;22.23;16.05;;;17.80;91.80;;;;;;5074028;28;20103;-76
2021/08/23 07:00:14;;;;;;;22.48;16.35;;;18.00;92.10;;;;;;5072464;28;20055;-76
2021/08/23 07:02:41;;;;;;;26.48;16.48;;;18.20;92.50;;;;;;5071983;28;20119;-75
2021/08/23 07:05:08;;;;;;;11.27;6.90;;;18.40;92.40;;;;;;5072147;28;20068;-76
2021/08/23 07:07:36;;;;;;;14.90;10.75;;;18.60;90.50;;;;;;5071761;28;20027;-76
2021/08/23 07:10:02;;;;;;;14.80;10.63;;;18.60;90.70;;;;;;5072126;28;20107;-77
2021/08/23 07:12:28;;;;;;;17.65;10.73;;;18.70;91.10;;;;;;5073674;28;20116;-75
2021/08/23 07:14:53;;;;;;;7.28;3.72;;;18.80;90.80;;;;;;5074402;28;20020;-77
2021/08/23 07:17:19;;;;;;;11.27;6.70;;;18.90;88.30;;;;;;5080603;28;20266;-76
2021/08/23 07:19:44;;;;;;;11.50;7.55;;;18.90;88.80;;;;;;5082433;28;20029;-75
2021/08/23 07:22:17;;;;;;;12.10;6.53;;;19.00;89.30;;;;;;5076968;28;20518;-77
2021/08/23 07:24:43;;;;;;;10.07;5.05;;;19.00;88.20;;;;;;5073541;28;20025;-76
2021/08/23 07:27:08;;;;;;;12.07;8.38;;;19.00;87.80;;;;;;5072893;28;20027;-75
2021/08/23 07:29:34;;;;;;;11.70;7.97;;;18.90;88.20;;;;;;5074277;28;20024;-76
2021/08/23 07:32:00;;;;;;;15.07;8.05;;;18.90;89.30;;;;;;5075000;28;20074;-75
2021/08/23 07:34:25;;;;;;;7.43;4.40;;;18.90;90.10;;;;;;5076522;28;20380;-77
2021/08/23 07:36:51;;;;;;;13.80;8.20;;;19.00;89.10;;;;;;5076731;28;20078;-75
2021/08/23 07:39:18;;;;;;;13.82;9.55;;;19.00;89.00;;;;;;5071887;28;20020;-77
2021/08/23 07:41:43;;;;;;;10.48;6.85;;;19.00;88.70;;;;;;5071400;28;20020;-77
2021/08/23 07:44:09;;;;;;;10.63;5.28;;;19.00;89.10;;;;;;5071862;28;20055;-77
2021/08/23 07:46:37;;;;;;;12.15;7.90;;;19.00;89.00;;;;;;5074527;28;20033;-76
2021/08/23 07:49:03;;;;;;;8.75;5.75;;;19.00;89.30;;;;;;5074871;28;20020;-75
2021/08/23 07:51:29;;;;;;;13.35;6.20;;;18.90;88.50;;;;;;5070550;28;20075;-75
2021/08/23 07:53:55;;;;;;;16.45;7.95;;;18.90;89.20;;;;;;5070763;28;20476;-76
2021/08/23 07:56:21;;;;;;;15.77;9.05;;;18.90;89.00;;;;;;5071474;28;20063;-76
2021/08/23 07:58:46;;;;;;;15.52;8.13;;;19.00;89.50;;;;;;5071150;28;20457;-76
2021/08/23 08:01:12;;;;;;;13.50;7.93;;;19.00;89.50;;;;;;5072507;28;20032;-75
2021/08/23 08:03:38;;;;;;;9.93;6.25;;;19.10;89.90;;;;;;5070670;28;20064;-76
2021/08/23 08:06:04;;;;;;;14.02;8.50;;;19.10;89.00;;;;;;5071388;28;20024;-75
2021/08/23 08:08:30;;;;;;;11.25;7.95;;;19.00;89.10;;;;;;5055963;28;20047;-76
2021/08/23 08:10:57;;;;;;;12.05;7.38;;;19.00;89.10;;;;;;5090923;28;20016;-77
2021/08/23 08:13:23;;;;;;;12.23;7.30;;;19.00;89.10;;;;;;5095207;28;20031;-78
2021/08/23 08:15:49;;;;;;;9.60;4.72;;;18.90;88.80;;;;;;5078637;28;20012;-77
2021/08/23 08:18:15;;;;;;;12.43;6.57;;;18.90;89.10;;;;;;5081408;28;20480;-78
2021/08/23 08:20:40;;;;;;;10.70;5.93;;;18.90;89.20;;;;;;5079063;28;20016;-76
2021/08/23 08:23:07;;;;;;;9.50;5.40;;;19.00;89.00;;;;;;5079159;28;20028;-76
2021/08/23 08:25:32;;;;;;;11.77;6.28;;;19.10;88.50;;;;;;5070743;28;20033;-76
2021/08/23 08:27:58;;;;;;;10.40;5.05;;;19.30;87.70;;;;;;5087372;28;20035;-75
2021/08/23 08:30:24;;;;;;;10.50;4.70;;;19.30;87.00;;;;;;5091088;28;20033;-75
2021/08/23 08:32:49;;;;;;;10.10;5.57;;;19.40;87.00;;;;;;5090876;28;20024;-75
2021/08/23 08:35:15;;;;;;;10.50;4.35;;;19.60;86.70;;;;;;5091055;28;20023;-75
2021/08/23 08:37:42;;;;;;;7.90;3.10;;;19.70;85.80;;;;;;5090868;28;20032;-76
2021/08/23 08:40:09;;;;;;;7.28;2.97;;;19.70;85.80;;;;;;5090818;28;20025;-76
2021/08/23 08:42:35;;;;;;;8.40;4.63;;;19.80;85.40;;;;;;5091893;28;20099;-75
2021/08/23 08:45:01;;;;;;;12.18;4.97;;;19.80;84.70;;;;;;5083915;28;20462;-75
2021/08/23 08:47:27;;;;;;;8.38;4.25;;;19.80;84.40;;;;;;5070335;28;20032;-75
2021/08/23 08:49:54;;;;;;;9.77;4.82;;;19.90;84.50;;;;;;5071855;28;20024;-75
2021/08/23 08:52:20;;;;;;;7.72;3.75;;;19.90;83.60;;;;;;5071512;28;20590;-75
2021/08/23 08:54:46;;;;;;;12.40;5.10;;;20.00;83.70;;;;;;5069859;28;20029;-75
2021/08/23 08:57:12;;;;;;;9.60;4.75;;;20.00;83.00;;;;;;5070501;28;20035;-76
2021/08/23 08:59:38;;;;;;;11.35;3.38;;;20.10;83.60;;;;;;5070305;28;20025;-76
2021/08/23 09:02:05;;;;;;;7.45;3.20;;;20.20;83.90;;;;;;5072043;28;20451;-75
2021/08/23 09:04:37;;;;;;;8.55;3.35;;;20.20;84.20;;;;;;5072997;28;20028;-75
2021/08/23 09:07:05;;;;;;;8.20;3.72;;;20.30;84.10;;;;;;5079005;28;20016;-76
2021/08/23 09:09:31;;;;;;;8.75;3.92;;;20.30;82.40;;;;;;5080241;28;20031;-77
2021/08/23 09:12:07;;;;;;;9.85;3.97;;;20.40;83.40;;;;;;5076922;28;20116;-75
2021/08/23 09:14:36;;;;;;;22.23;3.92;;;20.30;80.90;;;;;;5074270;28;20074;-75
2021/08/23 09:17:09;;;;;;;8.38;3.60;;;20.40;80.90;;;;;;5075272;28;20033;-75
2021/08/23 09:19:36;;;;;;;6.90;3.53;;;20.50;83.30;;;;;;5075072;28;20078;-75
2021/08/23 09:22:06;;;;;;;7.63;2.83;;;20.70;82.30;;;;;;5073566;28;20393;-75
2021/08/23 09:24:34;;;;;;;4.50;2.03;;;20.80;82.30;;;;;;5073552;28;20078;-76
2021/08/23 09:27:04;;;;;;;7.10;3.05;;;20.90;82.20;;;;;;5073365;28;20025;-75
2021/08/23 09:29:29;;;;;;;7.07;3.13;;;20.80;81.50;;;;;;5076357;28;20385;-76
2021/08/23 09:31:59;;;;;;;6.47;3.58;;;20.70;82.10;;;;;;5078735;28;20029;-76
2021/08/23 09:34:25;;;;;;;4.82;1.92;;;20.80;81.90;;;;;;5079916;28;20392;-75
2021/08/23 09:36:58;;;;;;;5.10;2.40;;;20.90;82.70;;;;;;5075238;28;20497;-76
2021/08/23 09:39:28;;;;;;;15.13;5.32;;;20.80;82.70;;;;;;5080794;28;20017;-75
2021/08/23 09:42:04;;;;;;;;;;;20.90;81.40;;;;;;5078046;28;20472;-75
2021/08/23 09:44:38;;;;;;;7.78;3.53;;;21.20;80.90;;;;;;5073643;28;19908;-75
2021/08/23 09:47:04;;;;;;;10.20;3.00;;;21.60;79.30;;;;;;5074497;28;20032;-76
2021/08/23 09:49:44;;;;;;;7.30;3.45;;;21.90;77.90;;;;;;5073501;28;20025;-76
2021/08/23 09:52:14;;;;;;;8.38;3.17;;;22.00;76.80;;;;;;5073369;28;20031;-75
2021/08/23 09:54:39;;;;;;;5.32;2.47;;;22.20;77.20;;;;;;5072865;28;20043;-77
2021/08/23 09:57:06;;;;;;;6.03;2.90;;;22.40;78.10;;;;;;5074406;28;20499;-77
2021/08/23 09:59:39;;;;;;;7.43;2.80;;;22.40;77.40;;;;;;5074410;28;20028;-77
2021/08/23 10:02:07;;;;;;;8.90;3.28;;;22.50;77.50;;;;;;5072769;28;20025;-76
2021/08/23 10:04:33;;;;;;;7.82;2.67;;;22.70;75.30;;;;;;5074067;28;20029;-75
2021/08/23 10:06:58;;;;;;;5.57;2.38;;;22.90;76.20;;;;;;5073050;28;20016;-76
2021/08/23 10:09:27;;;;;;;7.05;2.63;;;23.10;74.40;;;;;;5073743;28;20066;-76
2021/08/23 10:11:55;;;;;;;6.35;2.28;;;23.40;74.50;;;;;;5073777;28;20036;-76
2021/08/23 10:14:20;;;;;;;5.03;2.25;;;23.70;74.70;;;;;;5077344;28;20082;-75
2021/08/23 10:16:46;;;;;;;3.60;2.00;;;23.90;72.80;;;;;;5086556;28;20029;-75
2021/08/23 10:19:12;;;;;;;6.55;2.30;;;24.20;74.10;;;;;;5075577;28;20036;-76
2021/08/23 10:21:45;;;;;;;8.45;3.00;;;24.40;73.80;;;;;;5073672;28;20021;-75
2021/08/23 10:24:24;;;;;;;4.80;2.42;;;24.50;71.00;;;;;;5074171;28;20027;-75
2021/08/23 10:26:53;;;;;;;6.47;3.28;;;24.60;71.80;;;;;;5075993;28;20468;-76
2021/08/23 10:29:18;;;;;;;5.55;2.40;;;24.80;67.30;;;;;;5072499;28;20067;-75
2021/08/23 10:31:48;;;;;;;3.60;1.40;;;25.10;68.50;;;;;;5072212;28;20024;-75
2021/08/23 10:34:17;;;;;;;6.05;2.45;;;25.30;71.70;;;;;;5073791;28;20099;-75
2021/08/23 10:36:48;;;;;;;9.43;3.55;;;25.20;68.00;;;;;;5073061;28;20020;-75
2021/08/23 10:39:22;;;;;;;6.65;2.78;;;24.80;72.30;;;;;;5072106;28;20155;-75
2021/08/23 10:41:50;;;;;;;6.53;2.83;;;24.40;68.50;;;;;;5071882;28;20077;-76
2021/08/23 10:44:33;;;;;;;6.13;2.65;;;24.10;71.30;;;;;;5073639;28;20028;-75
2021/08/23 10:47:09;;;;;;;6.07;2.35;;;24.20;69.60;;;;;;5072049;28;20032;-75
2021/08/23 10:49:48;;;;;;;4.38;1.95;;;24.30;75.60;;;;;;5073425;28;20417;-75
2021/08/23 10:52:16;;;;;;;7.45;2.90;;;24.50;75.90;;;;;;5072287;28;20032;-75
2021/08/23 10:54:44;;;;;;;6.60;2.40;;;24.60;75.30;;;;;;5073247;28;20029;-76
2021/08/23 10:57:12;;;;;;;9.40;2.55;;;24.60;73.10;;;;;;5076765;28;20117;-76
2021/08/23 10:59:42;;;;;;;6.82;2.38;;;24.40;75.90;;;;;;5081526;28;20088;-76
2021/08/23 11:02:09;;;;;;;;;;;24.40;75.60;;;;;;5081742;28;20051;-75
2021/08/23 11:04:40;;;;;;;6.80;2.38;;;24.50;70.60;;;;;;5073880;28;19919;-75
2021/08/23 11:07:07;;;;;;;5.25;1.55;;;24.90;70.60;;;;;;5073100;28;20016;-75
2021/08/23 11:09:41;;;;;;;4.25;1.73;;;25.10;71.00;;;;;;5073052;28;20020;-76
2021/08/23 11:12:06;;;;;;;4.88;2.08;;;25.20;73.00;;;;;;5072986;28;20021;-75
2021/08/23 11:14:45;;;;;;;4.10;1.52;;;25.40;72.50;;;;;;5073336;28;20055;-76
2021/08/23 11:17:11;;;;;;;6.82;1.52;;;25.70;71.20;;;;;;5071392;28;20063;-76
2021/08/23 11:19:40;;;;;;;5.78;2.13;;;25.80;62.90;;;;;;5071279;28;20068;-77
2021/08/23 11:22:06;;;;;;;7.07;1.85;;;26.20;60.00;;;;;;5072751;28;20505;-76
2021/08/23 11:24:34;;;;;;;3.90;1.95;;;26.30;57.80;;;;;;5071371;28;20028;-76
2021/08/23 11:27:02;;;;;;;10.95;2.15;;;26.40;70.70;;;;;;5072257;28;20062;-76
2021/08/23 11:29:30;;;;;;;5.15;1.92;;;26.20;60.20;;;;;;5071444;28;20123;-75
2021/08/23 11:32:00;;;;;;;5.13;2.05;;;26.00;70.20;;;;;;5071005;28;20025;-75
2021/08/23 11:34:27;;;;;;;5.75;2.15;;;25.60;72.20;;;;;;5072440;28;20103;-76
2021/08/23 11:37:04;;;;;;;6.40;2.17;;;25.30;69.40;;;;;;5072359;28;20217;-75
2021/08/23 11:39:31;;;;;;;5.22;2.17;;;25.20;69.30;;;;;;5078580;28;20069;-75
2021/08/23 11:42:02;;;;;;;5.15;2.17;;;25.30;74.90;;;;;;5073149;28;20465;-75
2021/08/23 11:44:28;;;;;;;8.50;6.03;;;25.50;74.20;;;;;;5077473;28;20025;-75
2021/08/23 11:47:04;;;;;;;6.47;2.35;;;25.50;68.70;;;;;;5071923;28;20028;-75
2021/08/23 11:49:40;;;;;;;7.28;2.28;;;25.50;67.40;;;;;;5071380;28;20021;-76
2021/08/23 11:52:17;;;;;;;4.78;1.65;;;25.70;70.10;;;;;;5071259;28;20028;-76
2021/08/23 11:54:48;;;;;;;6.63;1.70;;;26.00;68.50;;;;;;5070645;28;20025;-76
2021/08/23 11:57:16;;;;;;;7.10;2.25;;;26.20;72.00;;;;;;5072121;28;20075;-75
2021/08/23 11:59:55;;;;;;;4.32;1.83;;;26.30;70.00;;;;;;5071903;28;20082;-75
2021/08/23 12:02:29;;;;;;;4.97;2.07;;;26.40;70.40;;;;;;5071269;28;20062;-75
2021/08/23 12:05:12;;;;;;;8.82;2.22;;;26.60;71.50;;;;;;5072253;28;20024;-75
2021/08/23 12:07:50;;;;;;;6.68;1.63;;;26.40;69.00;;;;;;5070806;28;20023;-76
2021/08/23 12:10:22;;;;;;;5.38;1.65;;;26.10;72.20;;;;;;5073304;28;20039;-75
2021/08/23 12:12:47;;;;;;;5.05;1.75;;;26.00;71.80;;;;;;5073227;28;20104;-75
2021/08/23 12:15:21;;;;;;;4.30;2.17;;;26.20;71.40;;;;;;5076845;28;20040;-76
2021/08/23 12:17:47;;;;;;;5.53;1.70;;;26.40;69.80;;;;;;5081504;28;20031;-75
2021/08/23 12:20:13;;;;;;;5.03;1.83;;;26.50;71.60;;;;;;5077355;28;20048;-75
2021/08/23 12:22:38;;;;;;;4.18;1.50;;;26.70;69.50;;;;;;5073141;28;20420;-76
2021/08/23 12:25:04;;;;;;;4.57;1.85;;;26.80;70.80;;;;;;5070852;28;20028;-75
2021/08/23 12:27:30;;;;;;;4.88;2.03;;;26.70;67.90;;;;;;5072334;28;20481;-75
2021/08/23 12:29:56;;;;;;;3.40;1.80;;;26.50;67.20;;;;;;5070673;28;20429;-75
2021/08/23 12:32:34;;;;;;;3.70;1.48;;;26.50;71.40;;;;;;5070948;28;20476;-76
2021/08/23 12:35:00;;;;;;;4.50;1.80;;;26.60;72.20;;;;;;5071886;28;20393;-75
2021/08/23 12:37:29;;;;;;;7.60;1.70;;;26.70;72.80;;;;;;5072561;28;20024;-75